.
WxDataArchive / Data Records for 2008-02-14
2008-02-13 February 2008 2008-02-15

Data Records for Thursday, 14 February 2008

Time	Temp	Chill	HIndex	Humid	Dewpt	 Wind 	HiWind	WindDir	Rain 	Barom 
-----	----	-----	------	-----	-----	------	------	-------	-----	----- 
00:00	12.3	12.3	12.3	74	5.6	0	0	---	0.00	30.041 
00:05	12.1	12.1	12.1	75	5.7	0	0	---	0.00	30.040 
00:10	12.3	12.3	12.3	76	6.2	0	0	---	0.00	30.043 
00:15	12.3	12.3	12.3	76	6.2	0	0	---	0.00	30.050 
00:20	12.1	12.1	12.1	76	6.0	0	0	---	0.00	30.051 
00:25	11.7	11.7	11.7	76	5.6	0	0	---	0.00	30.051 
00:30	11.4	11.4	11.4	76	5.3	0	0	---	0.00	30.050 
00:35	11.1	11.1	11.1	77	5.3	0	0	---	0.00	30.044 
00:40	10.7	10.7	10.7	78	5.2	0	0	---	0.00	30.044 
00:45	10.5	10.5	10.5	78	5.0	0	0	---	0.00	30.041 
00:50	10.2	10.2	10.2	78	4.7	0	0	---	0.00	30.043 
00:55	9.9	9.9	9.9	79	4.7	0	0	---	0.00	30.045 
01:00	9.7	9.7	9.7	79	4.5	0	0	---	0.00	30.043 
01:05	9.5	9.5	9.5	80	4.6	0	0	---	0.00	30.049 
01:10	9.3	9.3	9.3	80	4.4	0	0	---	0.00	30.050 
01:15	9.2	9.2	9.2	81	4.6	0	0	---	0.00	30.056 
01:20	9.0	9.0	9.0	81	4.4	0	0	---	0.00	30.052 
01:25	9.0	9.0	9.0	82	4.6	0	0	---	0.00	30.058 
01:30	9.0	9.0	9.0	82	4.6	0	0	---	0.00	30.062 
01:35	9.2	9.2	9.2	83	5.1	0	0	---	0.00	30.074 
01:40	9.3	9.3	9.3	83	5.2	0	0	---	0.00	30.074 
01:45	9.3	9.3	9.3	83	5.2	0	0	---	0.00	30.070 
01:50	9.2	9.2	9.2	83	5.1	0	0	---	0.00	30.071 
01:55	9.0	9.0	9.0	83	4.9	0	0	---	0.00	30.072 
02:00	8.8	8.8	8.8	83	4.7	0	0	---	0.00	30.069 
02:05	8.8	8.8	8.8	84	5.0	0	0	---	0.00	30.069 
02:10	8.8	8.8	8.8	84	5.0	0	0	---	0.00	30.071 
02:15	8.6	8.6	8.6	84	4.8	0	0	---	0.00	30.071 
02:20	8.4	8.4	8.4	84	4.6	0	0	---	0.00	30.073 
02:25	8.4	8.4	8.4	84	4.6	0	0	---	0.00	30.072 
02:30	8.6	8.6	8.6	84	4.8	0	0	---	0.00	30.072 
02:35	8.8	8.8	8.8	84	5.0	0	0	---	0.00	30.074 
02:40	9.0	9.0	9.0	85	5.4	0	0	---	0.00	30.074 
02:45	9.0	9.0	9.0	85	5.4	0	0	---	0.00	30.073 
02:50	9.0	9.0	9.0	85	5.4	0	0	---	0.00	30.073 
02:55	9.0	9.0	9.0	85	5.4	0	0	---	0.00	30.073 
03:00	9.0	9.0	9.0	85	5.4	0	1	248	0.00	30.075 
03:05	9.0	9.0	9.0	85	5.4	0	0	---	0.00	30.075 
03:10	8.8	8.8	8.8	85	5.2	0	0	---	0.00	30.075 
03:15	8.8	8.8	8.8	85	5.2	0	0	---	0.00	30.074 
03:20	8.8	8.8	8.8	85	5.2	0	0	---	0.00	30.075 
03:25	9.0	9.0	9.0	85	5.4	0	1	248	0.00	30.075 
03:30	9.3	9.3	9.3	86	6.0	0	1	248	0.00	30.075 
03:35	9.7	9.7	9.7	86	6.4	0	1	248	0.00	30.074 
03:40	10.0	10.0	10.0	86	6.7	0	1	248	0.00	30.077 
03:45	10.5	10.5	10.5	86	7.2	0	1	248	0.00	30.076 
03:50	11.1	11.1	11.1	86	7.7	0	1	248	0.00	30.073 
03:55	11.2	11.2	11.2	85	7.6	0	1	248	0.00	30.071 
04:00	11.2	11.2	11.2	85	7.6	0	2	248	0.00	30.070 
04:05	11.1	11.1	11.1	84	7.2	0	1	248	0.00	30.070 
04:10	11.1	11.1	11.1	84	7.2	0	1	248	0.00	30.071 
04:15	11.1	11.1	11.1	84	7.2	0	1	248	0.00	30.067 
04:20	11.1	11.1	11.1	84	7.2	0	1	248	0.00	30.069 
04:25	11.2	11.2	11.2	84	7.3	1	3	248	0.00	30.072 
04:30	11.7	11.7	11.7	84	7.8	1	3	248	0.00	30.074 
04:35	11.9	11.9	11.9	84	8.0	0	3	248	0.00	30.072 
04:40	12.1	12.1	12.1	84	8.2	0	1	248	0.00	30.073 
04:45	12.1	12.1	12.1	83	7.9	0	2	248	0.00	30.072 
04:50	12.1	12.1	12.1	83	7.9	0	1	248	0.00	30.072 
04:55	12.3	12.3	12.3	84	8.4	0	2	248	0.00	30.072 
05:00	12.3	12.3	12.3	84	8.4	0	1	248	0.00	30.072 
05:05	12.1	12.1	12.1	83	7.9	0	1	248	0.00	30.070 
05:10	12.1	12.1	12.1	83	7.9	0	1	248	0.00	30.069 
05:15	11.9	11.9	11.9	83	7.8	0	1	248	0.00	30.071 
05:20	11.9	11.9	11.9	84	8.0	0	1	248	0.00	30.073 
05:25	11.9	11.9	11.9	84	8.0	0	0	---	0.00	30.079 
05:30	11.7	11.7	11.7	84	7.8	0	0	---	0.00	30.078 
05:35	11.6	11.6	11.6	84	7.7	0	0	---	0.00	30.082 
05:40	11.6	11.6	11.6	84	7.7	0	0	---	0.00	30.086 
05:45	11.6	11.6	11.6	84	7.7	0	0	---	0.00	30.086 
05:50	11.6	11.6	11.6	85	8.0	0	0	---	0.00	30.086 
05:55	11.7	11.7	11.7	85	8.1	0	0	---	0.00	30.088 
06:00	11.7	11.7	11.7	85	8.1	0	1	248	0.00	30.085 
06:05	11.9	11.9	11.9	86	8.5	0	1	248	0.00	30.088 
06:10	12.1	12.1	12.1	86	8.7	0	0	---	0.00	30.089 
06:15	11.9	11.9	11.9	85	8.3	0	1	248	0.00	30.095 
06:20	11.9	11.9	11.9	86	8.5	0	1	248	0.00	30.095 
06:25	12.1	12.1	12.1	86	8.7	0	1	248	0.00	30.090 
06:30	12.3	12.3	12.3	86	8.9	0	1	248	0.00	30.086 
06:35	12.4	12.4	12.4	86	9.0	0	1	248	0.00	30.093 
06:40	12.6	12.6	12.6	86	9.2	0	0	---	0.00	30.091 
06:45	12.8	12.8	12.8	86	9.4	0	1	248	0.00	30.093 
06:50	12.8	12.8	12.8	86	9.4	0	0	---	0.00	30.096 
06:55	12.9	12.9	12.9	86	9.5	0	1	248	0.00	30.094 
07:00	13.1	13.1	13.1	87	10.0	0	1	248	0.00	30.089 
07:05	13.3	13.3	13.3	87	10.2	0	1	202	0.00	30.093 
07:10	13.5	13.5	13.5	86	10.1	0	2	202	0.00	30.093 
07:15	13.6	13.6	13.6	86	10.2	0	2	68	0.00	30.089 
07:20	13.6	13.6	13.6	86	10.2	0	2	68	0.00	30.092 
07:25	13.6	13.6	13.6	86	10.2	0	1	68	0.00	30.093 
07:30	13.6	13.6	13.6	85	9.9	0	1	68	0.00	30.090 
07:35	13.6	13.6	13.6	86	10.2	0	2	68	0.00	30.092 
07:40	13.8	13.8	13.8	85	10.1	0	3	68	0.00	30.093 
07:45	14.0	14.0	14.0	85	10.3	0	2	202	0.00	30.093 
07:50	14.0	14.0	14.0	85	10.3	0	4	248	0.00	30.094 
07:55	14.1	14.1	14.1	85	10.4	0	1	225	0.00	30.097 
08:00	14.1	14.1	14.1	85	10.4	0	3	225	0.00	30.097 
08:05	14.3	14.3	14.3	85	10.6	0	2	248	0.00	30.095 
08:10	14.4	14.4	14.4	85	10.7	0	2	248	0.00	30.096 
08:15	14.8	14.8	14.8	85	11.1	0	2	248	0.00	30.094 
08:20	15.2	15.2	15.2	85	11.5	0	2	22	0.00	30.090 
08:25	15.7	15.7	15.7	85	12.0	0	3	22	0.00	30.089 
08:30	16.5	16.5	16.5	85	12.8	1	4	0	0.00	30.086 
08:35	17.2	17.2	17.2	85	13.5	0	4	112	0.00	30.087 
08:40	17.8	17.8	17.8	83	13.5	1	4	225	0.00	30.084 
08:45	18.0	18.0	18.0	82	13.5	1	3	270	0.00	30.089 
08:50	18.3	18.3	18.3	81	13.5	1	4	248	0.00	30.091 
08:55	18.8	18.8	18.8	80	13.7	1	7	270	0.00	30.086 
09:00	19.4	19.4	19.4	78	13.7	1	10	248	0.00	30.086 
09:05	19.4	19.4	19.4	77	13.4	2	6	45	0.00	30.088 
09:10	19.2	19.2	19.2	77	13.2	2	5	68	0.00	30.087 
09:15	19.2	19.2	19.2	77	13.2	3	7	248	0.00	30.087 
09:20	19.2	19.2	19.2	77	13.2	2	8	248	0.00	30.087 
09:25	19.5	19.5	19.5	77	13.5	2	6	248	0.00	30.088 
09:30	19.9	19.9	19.9	77	13.9	1	4	248	0.00	30.087 
09:35	20.2	20.2	20.2	76	13.9	2	7	22	0.00	30.084 
09:40	20.6	20.6	20.6	75	14.0	2	6	248	0.00	30.086 
09:45	21.1	21.1	21.1	74	14.1	1	5	248	0.00	30.085 
09:50	21.3	21.3	21.3	73	14.0	2	4	248	0.00	30.080 
09:55	21.4	21.4	21.4	73	14.1	2	10	248	0.00	30.074 
10:00	22.1	22.1	22.1	73	14.8	1	6	135	0.00	30.070 
10:05	22.4	22.4	22.4	72	14.8	2	10	248	0.00	30.072 
10:10	22.5	22.5	22.5	71	14.5	2	7	248	0.00	30.073 
10:15	22.7	22.7	22.7	71	14.7	2	6	270	0.00	30.081 
10:20	22.5	22.5	22.5	71	14.5	2	7	248	0.00	30.083 
10:25	22.5	22.5	22.5	71	14.5	3	9	270	0.00	30.082 
10:30	22.5	22.5	22.5	71	14.5	2	9	248	0.00	30.073 
10:35	23.0	23.0	23.0	71	15.0	2	5	90	0.00	30.070 
10:40	23.2	23.2	23.2	71	15.2	2	4	68	0.00	30.066 
10:45	23.3	23.3	23.3	70	15.0	2	9	270	0.00	30.068 
10:50	23.9	23.9	23.9	71	15.9	1	5	248	0.00	30.064 
10:55	24.7	24.7	24.7	69	16.0	2	6	90	0.00	30.068 
11:00	25.3	25.3	25.3	69	16.6	1	4	45	0.00	30.062 
11:05	25.6	25.6	25.6	68	16.5	2	10	248	0.00	30.068 
11:10	25.4	25.4	25.4	67	16.0	2	5	315	0.00	30.068 
11:15	25.3	25.3	25.3	66	15.6	3	12	270	0.00	30.071 
11:20	25.4	20.5	25.4	67	16.0	4	12	248	0.00	30.074 
11:25	25.7	25.7	25.7	66	15.9	3	10	270	0.00	30.073 
11:30	26.0	26.0	26.0	66	16.2	2	6	90	0.00	30.069 
11:35	26.1	26.1	26.1	65	16.0	2	9	112	0.00	30.068 
11:40	26.3	26.3	26.3	65	16.2	3	7	248	0.00	30.068 
11:45	26.3	26.3	26.3	64	15.8	3	10	248	0.00	30.061 
11:50	26.3	26.3	26.3	65	16.2	2	6	270	0.00	30.061 
11:55	26.3	26.3	26.3	65	16.2	3	11	248	0.00	30.056 
12:00	26.6	26.6	26.6	66	16.8	2	9	248	0.00	30.056 
12:05	27.0	27.0	27.0	65	16.8	2	7	248	0.00	30.058 
12:10	26.9	22.2	26.9	63	16.0	4	12	248	0.00	30.056 
12:15	26.9	22.2	26.9	63	16.0	4	12	248	0.00	30.054 
12:20	26.9	22.2	26.9	64	16.4	4	11	270	0.00	30.053 
12:25	27.3	27.3	27.3	65	17.1	2	6	248	0.00	30.052 
12:30	27.2	27.2	27.2	64	16.7	3	12	248	0.00	30.049 
12:35	27.3	22.6	27.3	64	16.8	4	9	248	0.00	30.042 
12:40	27.6	27.6	27.6	65	17.4	2	5	270	0.00	30.037 
12:45	27.9	27.9	27.9	65	17.7	2	11	248	0.00	30.029 
12:50	27.6	27.6	27.6	64	17.0	2	6	270	0.00	30.035 
12:55	27.5	27.5	27.5	65	17.3	3	11	248	0.00	30.029 
13:00	27.5	27.5	27.5	65	17.3	2	6	270	0.00	30.028 
13:05	27.8	27.8	27.8	65	17.6	2	9	270	0.00	30.027 
13:10	27.9	27.9	27.9	65	17.7	3	7	248	0.00	30.028 
13:15	28.1	28.1	28.1	65	17.9	3	9	248	0.00	30.025 
13:20	28.2	28.2	28.2	64	17.6	3	9	248	0.00	30.024 
13:25	28.4	28.4	28.4	65	18.2	2	6	248	0.00	30.023 
13:30	28.7	28.7	28.7	64	18.1	2	10	248	0.00	30.015 
13:35	28.8	28.8	28.8	64	18.2	2	5	248	0.00	30.010 
13:40	28.8	28.8	28.8	65	18.5	3	12	270	0.00	30.005 
13:45	29.0	29.0	29.0	65	18.7	2	6	248	0.00	29.993 
13:50	28.8	28.8	28.8	65	18.5	3	11	112	0.00	29.993 
13:55	28.8	28.8	28.8	65	18.5	2	7	90	0.00	29.997 
14:00	29.1	29.1	29.1	65	18.8	3	10	90	0.00	29.990 
14:05	29.5	29.5	29.5	64	18.8	2	7	68	0.00	29.989 
14:10	29.8	29.8	29.8	63	18.8	3	7	270	0.00	29.990 
14:15	29.8	25.5	29.8	63	18.8	4	9	248	0.00	29.988 
14:20	29.8	29.8	29.8	63	18.8	3	9	248	0.00	29.990 
14:25	30.1	30.1	30.1	63	19.0	3	10	248	0.00	29.986 
14:30	30.6	30.6	30.6	64	19.9	1	4	248	0.00	29.986 
14:35	31.0	31.0	31.0	63	19.9	1	5	112	0.00	29.977 
14:40	31.2	31.2	31.2	63	20.1	2	6	0	0.00	29.975 
14:45	31.0	31.0	31.0	63	19.9	2	5	68	0.00	29.975 
14:50	31.0	31.0	31.0	63	19.9	3	6	90	0.00	29.974 
14:55	31.0	31.0	31.0	64	20.3	2	7	90	0.00	29.973 
15:00	31.0	31.0	31.0	63	19.9	2	6	90	0.00	29.972 
15:05	31.0	31.0	31.0	63	19.9	3	11	68	0.00	29.963 
15:10	30.7	26.6	30.7	64	20.0	4	9	90	0.00	29.960 
15:15	30.7	30.7	30.7	64	20.0	3	11	90	0.00	29.956 
15:20	30.9	30.9	30.9	64	20.2	2	7	112	0.00	29.954 
15:25	31.0	31.0	31.0	65	20.6	3	11	112	0.00	29.955 
15:30	31.5	31.5	31.5	64	20.7	1	5	248	0.00	29.954 
15:35	31.8	31.8	31.8	64	21.0	2	6	135	0.00	29.955 
15:40	31.9	31.9	31.9	64	21.1	2	5	270	0.00	29.957 
15:45	31.9	31.9	31.9	64	21.1	2	9	68	0.00	29.955 
15:50	31.9	31.9	31.9	63	20.8	2	14	112	0.01	29.951 
15:55	31.8	31.8	31.8	64	21.0	3	9	112	0.00	29.944 
16:00	31.8	31.8	31.8	64	21.0	2	10	112	0.00	29.938 
16:05	31.8	31.8	31.8	65	21.4	2	7	112	0.00	29.934 
16:10	31.8	31.8	31.8	65	21.4	3	9	112	0.00	29.929 
16:15	31.6	31.6	31.6	66	21.6	2	6	112	0.00	29.933 
16:20	31.5	31.5	31.5	67	21.8	3	11	90	0.00	29.934 
16:25	31.3	31.3	31.3	68	22.0	1	4	90	0.00	29.938 
16:30	31.5	31.5	31.5	68	22.2	1	5	68	0.00	29.938 
16:35	31.5	31.5	31.5	67	21.8	2	7	270	0.00	29.935 
16:40	31.6	31.6	31.6	68	22.3	2	7	248	0.00	29.932 
16:45	31.6	31.6	31.6	68	22.3	1	4	112	0.00	29.923 
16:50	31.6	31.6	31.6	68	22.3	2	8	90	0.00	29.921 
16:55	31.8	31.8	31.8	68	22.5	2	6	90	0.00	29.920 
17:00	31.9	31.9	31.9	68	22.6	2	6	248	0.00	29.922 
17:05	32.1	32.1	32.1	68	22.7	1	6	248	0.00	29.926 
17:10	31.9	31.9	31.9	68	22.6	2	7	0	0.00	29.924 
17:15	31.9	31.9	31.9	68	22.6	1	3	248	0.00	29.925 
17:20	31.8	31.8	31.8	68	22.5	1	3	248	0.00	29.923 
17:25	31.8	31.8	31.8	68	22.5	1	4	90	0.00	29.920 
17:30	31.8	31.8	31.8	68	22.5	3	7	248	0.00	29.921 
17:35	31.9	31.9	31.9	68	22.6	2	5	248	0.00	29.923 
17:40	31.9	31.9	31.9	68	22.6	1	4	270	0.00	29.923 
17:45	31.9	31.9	31.9	68	22.6	1	4	270	0.00	29.928 
17:50	31.9	31.9	31.9	68	22.6	1	4	270	0.00	29.928 
17:55	31.8	31.8	31.8	69	22.8	1	3	270	0.00	29.938 
18:00	31.8	31.8	31.8	69	22.8	2	4	248	0.00	29.938 
18:05	31.8	31.8	31.8	69	22.8	1	4	248	0.00	29.939 
18:10	31.8	31.8	31.8	69	22.8	1	3	248	0.00	29.937 
18:15	31.6	31.6	31.6	69	22.6	1	4	248	0.00	29.933 
18:20	31.6	31.6	31.6	69	22.6	1	5	248	0.00	29.930 
18:25	31.6	31.6	31.6	69	22.6	1	5	270	0.00	29.927 
18:30	31.6	31.6	31.6	69	22.6	1	5	248	0.00	29.930 
18:35	31.5	31.5	31.5	69	22.5	1	3	248	0.00	29.933 
18:40	31.5	31.5	31.5	69	22.5	1	4	248	0.00	29.934 
18:45	31.5	31.5	31.5	69	22.5	1	5	248	0.00	29.936 
18:50	31.5	31.5	31.5	69	22.5	1	4	248	0.00	29.937 
18:55	31.3	31.3	31.3	69	22.3	1	3	248	0.00	29.936 
19:00	31.2	31.2	31.2	70	22.6	1	3	248	0.00	29.937 
19:05	31.2	31.2	31.2	70	22.6	1	3	270	0.00	29.938 
19:10	31.2	31.2	31.2	70	22.6	1	4	248	0.00	29.939 
19:15	31.2	31.2	31.2	70	22.6	2	5	248	0.00	29.940 
19:20	31.2	31.2	31.2	70	22.6	1	3	248	0.00	29.940 
19:25	31.0	31.0	31.0	70	22.4	0	3	248	0.00	29.945 
19:30	30.9	30.9	30.9	71	22.6	1	3	248	0.00	29.946 
19:35	30.9	30.9	30.9	71	22.6	1	4	248	0.00	29.950 
19:40	30.7	30.7	30.7	71	22.4	1	3	248	0.00	29.952 
19:45	30.7	30.7	30.7	71	22.4	1	5	248	0.00	29.953 
19:50	30.7	30.7	30.7	71	22.4	1	3	270	0.00	29.953 
19:55	30.6	30.6	30.6	72	22.7	1	3	248	0.00	29.954 
20:00	30.4	30.4	30.4	72	22.5	1	3	248	0.00	29.955 
20:05	30.4	30.4	30.4	72	22.5	1	2	248	0.00	29.951 
20:10	30.3	30.3	30.3	72	22.4	1	3	248	0.00	29.956 
20:15	30.3	30.3	30.3	73	22.7	1	3	248	0.00	29.958 
20:20	30.1	30.1	30.1	73	22.5	0	2	248	0.00	29.957 
20:25	30.1	30.1	30.1	73	22.5	1	4	248	0.00	29.959 
20:30	30.1	30.1	30.1	73	22.5	1	5	248	0.00	29.962 
20:35	30.3	30.3	30.3	74	23.0	1	4	248	0.00	29.962 
20:40	30.4	30.4	30.4	74	23.1	1	4	248	0.00	29.965 
20:45	30.4	30.4	30.4	74	23.1	1	3	248	0.00	29.960 
20:50	30.6	30.6	30.6	74	23.3	1	4	248	0.00	29.962 
20:55	30.7	30.7	30.7	74	23.4	1	6	248	0.00	29.959 
21:00	30.9	30.9	30.9	74	23.6	2	7	248	0.00	29.961 
21:05	31.0	31.0	31.0	74	23.7	2	7	270	0.00	29.959 
21:10	31.2	31.2	31.2	74	23.9	2	4	248	0.00	29.961 
21:15	31.2	31.2	31.2	74	23.9	2	5	248	0.00	29.962 
21:20	31.3	31.3	31.3	74	24.0	2	7	248	0.00	29.961 
21:25	31.3	31.3	31.3	75	24.3	2	5	248	0.00	29.962 
21:30	31.3	31.3	31.3	75	24.3	2	7	248	0.00	29.963 
21:35	31.5	31.5	31.5	75	24.5	3	6	248	0.00	29.961 
21:40	31.5	31.5	31.5	75	24.5	2	6	248	0.00	29.961 
21:45	31.5	31.5	31.5	75	24.5	2	7	248	0.00	29.962 
21:50	31.5	31.5	31.5	76	24.8	2	9	248	0.00	29.962 
21:55	31.6	31.6	31.6	75	24.6	3	9	248	0.00	29.961 
22:00	31.6	31.6	31.6	76	24.9	2	6	248	0.00	29.961 
22:05	31.6	31.6	31.6	76	24.9	2	7	248	0.00	29.957 
22:10	31.6	31.6	31.6	76	24.9	3	7	248	0.00	29.945 
22:15	31.6	31.6	31.6	76	24.9	2	7	270	0.00	29.939 
22:20	31.6	31.6	31.6	76	24.9	2	5	248	0.00	29.938 
22:25	31.8	31.8	31.8	76	25.1	3	6	270	0.00	29.956 
22:30	31.8	31.8	31.8	76	25.1	2	4	248	0.00	29.951 
22:35	31.9	31.9	31.9	75	24.9	3	10	248	0.00	29.952 
22:40	32.1	32.1	32.1	75	25.1	3	6	248	0.00	29.955 
22:45	32.1	32.1	32.1	75	25.1	3	9	248	0.00	29.957 
22:50	32.1	32.1	32.1	75	25.1	2	7	248	0.00	29.956 
22:55	32.1	32.1	32.1	75	25.1	2	7	248	0.00	29.951 
23:00	32.2	32.2	32.2	75	25.2	3	9	248	0.00	29.947 
23:05	32.2	32.2	32.2	75	25.2	3	9	248	0.00	29.949 
23:10	32.2	32.2	32.2	75	25.2	2	5	248	0.00	29.941 
23:15	32.4	32.4	32.4	75	25.4	3	7	248	0.00	29.953 
23:20	32.4	32.4	32.4	75	25.4	2	6	248	0.00	29.953 
23:25	32.4	32.4	32.4	75	25.4	2	6	248	0.00	29.953 
23:30	32.4	32.4	32.4	75	25.4	3	6	248	0.00	29.949 
23:35	32.4	32.4	32.4	75	25.4	2	7	248	0.00	29.950 
23:40	32.5	32.5	32.5	75	25.5	2	7	248	0.00	29.940 
23:45	32.5	32.5	32.5	75	25.5	2	5	248	0.00	29.940 
23:50	32.7	28.9	32.7	75	25.7	4	10	248	0.00	29.940 
23:55	32.7	32.7	32.7	75	25.7	3	6	248	0.00	29.940 

CoCoRaHS
IN-AL-39
A2 Web Hosting
Creative Commons License
GoDaddy
Look for:

loaded 2017-10-19 19:52:22 • last modified 2010-11-18 10:43:29
Privacy PolicyDisclaimer
• wx.awcolley.com is powered by PmWiki v.2002016 •
• all content (unless otherwise noted) © 2017 A W Colley